createdAt,value
2023-01-25T00:02:14.123Z,26.82
2023-01-25T00:07:13.077Z,27.24
2023-01-25T00:12:13.232Z,27.09
2023-01-25T00:17:11.561Z,27.22
2023-01-25T00:22:10.730Z,26.81
2023-01-25T00:27:11.049Z,26.63
2023-01-25T00:32:10.373Z,26.35
2023-01-25T00:37:09.541Z,26.76
2023-01-25T00:42:08.837Z,26.48
2023-01-25T00:47:07.185Z,25.72
2023-01-25T00:52:08.349Z,24.68
2023-01-25T00:57:07.446Z,23.79
2023-01-25T01:02:05.789Z,23.12
2023-01-25T01:07:04.051Z,22.52
2023-01-25T01:12:03.380Z,21.75
2023-01-25T01:17:03.536Z,21.24
2023-01-25T01:22:01.650Z,20.72
2023-01-25T01:27:01.958Z,20.24
2023-01-25T01:32:01.381Z,19.80
2023-01-25T01:36:59.532Z,19.56
2023-01-25T01:41:59.125Z,19.37
2023-01-25T01:46:59.048Z,18.91
2023-01-25T01:51:57.361Z,18.57
2023-01-25T01:56:57.504Z,18.17
2023-01-25T02:01:56.690Z,18.11
2023-01-25T02:06:55.889Z,17.26
2023-01-25T02:11:55.128Z,17.11
2023-01-25T02:16:53.250Z,16.98
2023-01-25T02:21:54.571Z,17.04
2023-01-25T02:26:52.923Z,16.86
2023-01-25T02:31:51.797Z,16.78
2023-01-25T02:36:50.600Z,16.63
2023-01-25T02:41:49.617Z,16.31
2023-01-25T02:46:48.802Z,16.24
2023-01-25T02:51:48.969Z,16.27
2023-01-25T02:56:47.349Z,16.12
2023-01-25T03:01:46.536Z,16.08
2023-01-25T03:06:46.734Z,15.90
2023-01-25T03:11:45.885Z,15.72
2023-01-25T03:16:45.222Z,15.83
2023-01-25T03:21:43.374Z,16.07
2023-01-25T03:26:41.482Z,16.31
2023-01-25T03:31:41.769Z,16.41
2023-01-25T03:36:40.766Z,16.41
2023-01-25T03:41:40.101Z,16.34
2023-01-25T03:46:39.371Z,16.33
2023-01-25T03:51:38.568Z,16.24
2023-01-25T03:56:38.735Z,16.17
2023-01-25T04:01:37.892Z,16.05
2023-01-25T04:06:36.082Z,15.69
2023-01-25T04:11:36.244Z,15.72
2023-01-25T04:16:34.448Z,15.51
2023-01-25T04:21:33.576Z,15.54
2023-01-25T04:26:32.705Z,16.15
2023-01-25T04:31:31.901Z,16.61
2023-01-25T04:36:32.101Z,16.93
2023-01-25T04:41:30.244Z,17.23
2023-01-25T04:46:29.385Z,17.52
2023-01-25T04:51:28.960Z,17.48
2023-01-25T04:56:28.768Z,17.51
2023-01-25T05:01:26.908Z,17.44
2023-01-25T05:06:26.142Z,17.28
2023-01-25T05:11:26.248Z,16.98
2023-01-25T05:16:24.767Z,16.93
2023-01-25T05:21:24.211Z,16.78
2023-01-25T05:26:23.118Z,16.49
2023-01-25T05:31:22.525Z,16.42
2023-01-25T05:36:22.672Z,16.27
2023-01-25T05:41:22.005Z,15.96
2023-01-25T05:46:20.378Z,16.23
2023-01-25T05:51:22.559Z,17.25
2023-01-25T05:56:19.875Z,17.86
2023-01-25T06:01:18.037Z,18.39
2023-01-25T06:06:18.395Z,18.81
2023-01-25T06:11:17.694Z,18.75
2023-01-25T06:16:17.869Z,18.44
2023-01-25T06:21:15.034Z,18.20
2023-01-25T06:26:14.201Z,18.03
2023-01-25T06:31:13.448Z,17.90
2023-01-25T06:36:13.647Z,17.49
2023-01-25T06:41:12.159Z,17.04
2023-01-25T06:46:10.968Z,16.73
2023-01-25T06:51:12.126Z,16.46
2023-01-25T06:56:10.925Z,16.14
2023-01-25T07:01:08.778Z,15.83
2023-01-25T07:06:08.928Z,15.68
2023-01-25T07:11:08.083Z,16.35
2023-01-25T07:16:06.228Z,17.08
2023-01-25T07:21:07.365Z,17.30
2023-01-25T07:26:04.539Z,17.38
2023-01-25T07:31:02.637Z,17.36
2023-01-25T07:36:02.994Z,17.26
2023-01-25T07:41:02.142Z,17.15
2023-01-25T07:46:02.299Z,16.96
2023-01-25T07:51:00.432Z,16.75
2023-01-25T07:55:59.824Z,16.68
2023-01-25T08:00:59.946Z,17.74
2023-01-25T08:05:58.073Z,18.00
2023-01-25T08:10:59.199Z,17.96
2023-01-25T08:15:57.507Z,17.93
2023-01-25T08:20:55.835Z,17.90
2023-01-25T08:25:55.175Z,18.82
2023-01-25T08:30:57.540Z,21.25
2023-01-25T08:35:53.591Z,22.91
2023-01-25T08:40:53.913Z,23.12
2023-01-25T08:45:53.223Z,23.04
2023-01-25T08:50:52.505Z,22.83
2023-01-25T08:55:51.803Z,22.30
2023-01-25T09:00:49.115Z,21.98
2023-01-25T09:05:51.427Z,21.68
2023-01-25T09:10:51.740Z,21.37
2023-01-25T09:15:50.035Z,21.13
2023-01-25T09:20:47.406Z,20.87
2023-01-25T09:25:46.523Z,20.66
2023-01-25T09:30:47.537Z,20.35
2023-01-25T09:35:45.995Z,20.17
2023-01-25T09:40:45.281Z,19.91
2023-01-25T09:45:44.581Z,19.69
2023-01-25T09:50:42.878Z,19.69
2023-01-25T09:55:42.174Z,20.16
2023-01-25T10:00:41.493Z,20.42
2023-01-25T10:05:40.803Z,21.71
2023-01-25T10:10:38.934Z,22.35
2023-01-25T10:15:39.264Z,22.51
2023-01-25T10:20:39.363Z,22.35
2023-01-25T10:25:37.712Z,22.14
2023-01-25T10:30:36.849Z,21.86
2023-01-25T10:35:40.434Z,21.69
2023-01-25T10:40:35.341Z,21.44
2023-01-25T10:45:35.430Z,21.19
2023-01-25T10:50:34.760Z,20.95
2023-01-25T10:55:33.095Z,20.74
2023-01-25T11:00:32.434Z,20.55
2023-01-25T11:05:31.561Z,20.33
2023-01-25T11:10:31.896Z,20.13
2023-01-25T11:15:30.192Z,19.94
2023-01-25T11:20:29.544Z,19.99
2023-01-25T11:25:28.839Z,21.50
2023-01-25T11:30:29.172Z,22.73
2023-01-25T11:35:27.489Z,23.15
2023-01-25T11:40:27.618Z,23.43
2023-01-25T11:45:27.946Z,23.40
2023-01-25T11:50:26.238Z,23.07
2023-01-25T11:55:26.546Z,22.64
2023-01-25T12:00:23.824Z,22.27
2023-01-25T12:05:22.557Z,22.03
2023-01-25T12:10:23.310Z,21.65
2023-01-25T12:15:21.608Z,21.42
2023-01-25T12:20:20.967Z,21.12
2023-01-25T12:25:20.091Z,20.88
2023-01-25T12:30:19.428Z,20.64
2023-01-25T12:35:18.756Z,20.41
2023-01-25T12:40:19.082Z,20.20
2023-01-25T12:45:18.373Z,20.72
2023-01-25T12:50:17.705Z,22.86
2023-01-25T12:55:16.011Z,23.60
2023-01-25T13:00:16.395Z,23.84
2023-01-25T13:05:14.505Z,23.87
2023-01-25T13:10:14.641Z,23.70
2023-01-25T13:15:15.018Z,23.32
2023-01-25T13:20:12.595Z,22.97
2023-01-25T13:25:11.869Z,22.52
2023-01-25T13:30:11.033Z,22.18
2023-01-25T13:35:10.934Z,21.86
2023-01-25T13:40:10.587Z,21.59
2023-01-25T13:45:09.725Z,21.27
2023-01-25T13:50:07.596Z,21.04
2023-01-25T13:55:07.764Z,20.73
2023-01-25T14:00:10.659Z,20.47
2023-01-25T14:05:08.028Z,20.24
2023-01-25T14:10:06.367Z,20.21
2023-01-25T14:15:04.495Z,21.61
2023-01-25T14:20:02.856Z,23.15
2023-01-25T14:25:03.003Z,23.60
2023-01-25T14:30:02.112Z,23.55
2023-01-25T14:35:01.497Z,23.42
2023-01-25T14:39:59.647Z,23.01
2023-01-25T14:44:58.772Z,22.55
2023-01-25T14:49:58.105Z,22.18
2023-01-25T14:55:00.425Z,21.86
2023-01-25T14:59:58.744Z,21.54
2023-01-25T15:04:55.841Z,21.29
2023-01-25T15:09:55.192Z,20.98
2023-01-25T15:14:55.314Z,20.72
2023-01-25T15:19:52.654Z,20.42
2023-01-25T15:24:58.230Z,20.18
2023-01-25T15:29:53.058Z,20.06
2023-01-25T15:34:52.148Z,21.19
2023-01-25T15:39:51.474Z,22.57
2023-01-25T15:44:49.795Z,23.40
2023-01-25T15:49:48.962Z,23.57
2023-01-25T15:54:59.939Z,23.47
2023-01-25T15:59:47.316Z,23.27
2023-01-25T16:04:46.498Z,22.90
2023-01-25T16:09:46.743Z,22.47
2023-01-25T16:14:45.067Z,22.09
2023-01-25T16:19:44.299Z,21.84
2023-01-25T16:24:43.230Z,21.50
2023-01-25T16:29:42.547Z,21.21
2023-01-25T16:34:42.027Z,20.92
2023-01-25T16:39:41.141Z,20.61
2023-01-25T16:44:43.266Z,20.38
2023-01-25T16:49:41.472Z,20.11
2023-01-25T16:54:38.651Z,19.87
2023-01-25T16:59:40.138Z,19.87
2023-01-25T17:04:37.950Z,21.80
2023-01-25T17:09:36.498Z,22.86
2023-01-25T17:14:35.352Z,23.68
2023-01-25T17:19:34.668Z,23.69
2023-01-25T17:24:36.963Z,23.53
2023-01-25T17:29:34.477Z,23.43
2023-01-25T17:34:33.583Z,23.22
2023-01-25T17:39:31.875Z,22.94
2023-01-25T17:44:31.043Z,22.64
2023-01-25T17:49:31.216Z,22.30
2023-01-25T17:54:29.517Z,21.96
2023-01-25T17:59:28.926Z,21.67
2023-01-25T18:04:28.069Z,21.40
2023-01-25T18:09:27.472Z,23.04
2023-01-25T18:14:26.654Z,25.76
2023-01-25T18:19:26.585Z,27.07
2023-01-25T18:24:24.657Z,28.61
2023-01-25T18:29:24.380Z,29.27
2023-01-25T18:34:22.410Z,29.15
2023-01-25T18:39:23.693Z,29.90
2023-01-25T18:44:21.955Z,30.22
2023-01-25T18:49:23.163Z,29.89
2023-01-25T18:54:22.356Z,30.23
2023-01-25T18:59:19.694Z,30.45
2023-01-25T19:04:18.916Z,30.55
2023-01-25T19:09:18.131Z,30.80
2023-01-25T19:14:22.208Z,31.12
2023-01-25T19:19:16.695Z,31.54
2023-01-25T19:24:18.016Z,31.78
2023-01-25T19:29:15.125Z,31.66
2023-01-25T19:34:15.385Z,31.85
2023-01-25T19:39:14.379Z,31.32
2023-01-25T19:44:12.782Z,31.35
2023-01-25T19:49:12.020Z,31.58
2023-01-25T19:54:11.933Z,30.65
2023-01-25T19:59:10.204Z,31.73
2023-01-25T20:04:10.755Z,32.04
2023-01-25T20:09:09.010Z,31.80
2023-01-25T20:14:08.357Z,31.91
2023-01-25T20:19:06.413Z,32.07
2023-01-25T20:24:06.826Z,32.19
2023-01-25T20:29:19.401Z,32.26
2023-01-25T20:34:05.105Z,32.57
2023-01-25T20:39:04.354Z,32.51
2023-01-25T20:44:03.172Z,32.52
2023-01-25T20:49:02.897Z,32.48
2023-01-25T20:54:02.157Z,32.60
2023-01-25T20:59:01.311Z,32.56
2023-01-25T21:04:01.490Z,32.63
2023-01-25T21:08:59.785Z,32.72
2023-01-25T21:13:58.913Z,32.15
2023-01-25T21:18:58.064Z,32.26
2023-01-25T21:24:00.292Z,32.26
2023-01-25T21:28:56.522Z,32.66
2023-01-25T21:33:56.912Z,32.81
2023-01-25T21:38:54.969Z,32.75
2023-01-25T21:43:54.070Z,32.97
2023-01-25T21:48:54.760Z,33.18
2023-01-25T21:53:52.585Z,33.01
2023-01-25T21:58:51.708Z,32.55
2023-01-25T22:03:51.213Z,32.37
2023-01-25T22:08:49.120Z,32.51
2023-01-25T22:13:50.268Z,32.57
2023-01-25T22:18:48.592Z,32.60
2023-01-25T22:23:47.975Z,32.41
2023-01-25T22:28:47.123Z,32.38
2023-01-25T22:33:46.323Z,32.43
2023-01-25T22:38:45.466Z,32.60
2023-01-25T22:43:45.794Z,32.48
2023-01-25T22:48:44.208Z,32.59
2023-01-25T22:53:42.456Z,32.18
2023-01-25T22:58:42.950Z,31.65
2023-01-25T23:03:41.012Z,32.13
2023-01-25T23:08:41.213Z,32.14
2023-01-25T23:13:41.348Z,32.28
2023-01-25T23:18:40.709Z,32.25
2023-01-25T23:23:38.846Z,32.13
2023-01-25T23:28:39.171Z,32.30
2023-01-25T23:33:37.465Z,32.21
2023-01-25T23:38:36.793Z,32.65
2023-01-25T23:43:37.119Z,33.04
2023-01-25T23:49:17.434Z,32.92
2023-01-25T23:53:36.754Z,32.96
2023-01-25T23:58:33.860Z,32.28
